Flight Track Log - Related Links

Times and Time Zones

All times are in EDT time to prevent confusion due to time zone crossing. See the UAL3740 flight status page for this flight to view local times or setup timezone preferences in your user account.

Time Position Orientation Groundspeed Altitude Reporting Facility
EDT Latitude Longitude Course Direction KTS MPH feet Rate Location/Type
Fri 08:35:07 AM 38.9667 -77.4333 345° North 152 175 2,000  Level Potomac TRACON
Fri 08:36:08 AM 39.0167 -77.4500 345° North 195 224 4,200 2,348 Climbing Potomac TRACON
Fri 08:37:02 AM 39.0833 -77.4500 360° North 265 305 6,500 2,579 Climbing Potomac TRACON
Fri 08:38:02 AM 39.1333 -77.3833 46° Northeast 287 330 9,100 1,895 Climbing Potomac TRACON
Fri 08:38:56 AM 39.1833 -77.3000 52° Northeast 346 398 10,100 1,459 Climbing Potomac TRACON
Fri 08:40:30 AM 39.1269 -77.1033 110° East 381 438 12,700 1,725 Climbing Washington Center
Fri 08:41:29 AM 39.0931 -76.9608 107° East 397 457 14,500 1,866 Climbing Washington Center
Fri 08:42:29 AM 39.1053 -76.8114 84° East 409 471 16,400 1,750 Climbing Washington Center
Fri 08:43:29 AM 39.1169 -76.6592 84° East 409 471 18,000 1,289 Climbing Washington Center
Fri 08:44:30 AM 39.1289 -76.4986 84° East 426 490 19,000 1,240 Climbing Washington Center
Fri 08:45:30 AM 39.1467 -76.3383 82° East 443 510 20,500 1,438 Climbing Washington Center
Fri 08:46:31 AM 39.1914 -76.1647 72° East 455 524 21,900 1,240 Climbing Washington Center
Fri 08:47:31 AM 39.2522 -76.0231 61° Northeast 455 524 23,000 1,322 Climbing Washington Center
Fri 08:48:29 AM 39.3256 -75.8867 55° Northeast 455 524 24,500 1,664 Climbing Washington Center
Fri 08:49:30 AM 39.4008 -75.7608 52° Northeast 455 524 26,300 1,686 Climbing Washington Center
Fri 08:50:30 AM 39.4761 -75.6344 52° Northeast 444 511 27,900 1,587 Climbing Washington Center
Fri 08:51:31 AM 39.5553 -75.5108 50° Northeast 444 511 29,500 1,563 Climbing Washington Center
Fri 08:52:29 AM 39.6300 -75.3867 52° Northeast 444 511 31,000 1,373 Climbing Washington Center
Fri 08:53:29 AM 39.7047 -75.2653 51° Northeast 439 505 32,200 916 Climbing Washington Center
Fri 08:54:40 AM 39.7850 -75.1283 53° Northeast 464 534 33,000 361 Climbing New Center
Fri 08:55:42 AM 39.8628 -74.9978 52° Northeast 458 527 33,000  Level New Center
Fri 08:56:41 AM 39.9444 -74.8647 51° Northeast 463 533 33,000  Level New Center
Fri 08:57:42 AM 40.0386 -74.7347 47° Northeast 475 547 33,000  Level New Center
Fri 08:58:42 AM 40.1142 -74.5925 55° Northeast 475 547 33,000  Level New Center
Fri 09:00:28 AM 40.2153 -74.3150 64° Northeast 477 549 33,000  Level Boston Center
Fri 09:01:28 AM 40.2722 -74.1561 65° Northeast 477 549 33,000 -50 Level Boston Center
Fri 09:02:28 AM 40.3283 -74.0081 64° Northeast 472 543 32,900 -600 Descending Boston Center
Fri 09:03:28 AM 40.3869 -73.8458 65° Northeast 472 543 31,800 -2,350 Descending Boston Center
Fri 09:04:28 AM 40.4428 -73.6861 65° Northeast 472 543 28,200 -2,400 Descending Boston Center
Fri 09:05:28 AM 40.5031 -73.5153 65° Northeast 476 548 27,000 -750 Descending Boston Center
Fri 09:06:28 AM 40.5544 -73.3606 66° East 469 540 26,700 -650 Descending Boston Center
Fri 09:07:28 AM 40.6056 -73.2136 65° Northeast 453 521 25,700 -1,300 Descending Boston Center
Fri 09:08:28 AM 40.6564 -73.0664 65° Northeast 440 506 24,100 -1,800 Descending Boston Center
Fri 09:09:28 AM 40.7092 -72.9219 64° Northeast 440 506 22,100 -1,950 Descending Boston Center
Fri 09:10:28 AM 40.7536 -72.7964 65° Northeast 427 491 20,200 -1,950 Descending Boston Center
Fri 09:11:28 AM 40.7975 -72.6622 67° East 411 473 18,200 -1,950 Descending Boston Center
Fri 09:12:28 AM 40.8500 -72.5197 64° Northeast 394 453 16,300 -1,950 Descending Boston Center
Fri 09:13:28 AM 40.8978 -72.3825 65° Northeast 394 453 14,300 -1,976 Descending Boston Center
Fri 09:13:53 AM 40.9144 -72.3358 65° Northeast 398 458 13,500 -1,964 Descending Boston Center
Fri 09:14:23 AM 40.9394 -72.2614 66° East 421 484 12,500 -1,648 Descending Boston Center
Fri 09:15:24 AM 40.9869 -72.1294 64° Northeast 391 450 11,000 -738 Descending Boston Center
Fri 09:16:25 AM 41.0261 -72.0053 67° East 368 423 11,000 -492 Level Boston Center
Fri 09:17:26 AM 41.0611 -71.9089 64° Northeast 298 343 10,000 -1,475 Descending Boston Center
Fri 09:18:27 AM 41.1128 -71.8286 49° Northeast 287 330 8,000 -1,983 Descending Boston Center
Fri 09:19:27 AM 41.1644 -71.7397 52° Northeast 282 325 6,000 -1,488 Descending Boston Center
Fri 09:20:28 AM 41.2119 -71.6647 50° Northeast 273 314 5,000 -492 Descending Boston Center
Fri 09:21:29 AM 41.2783 -71.6253 24° Northeast 260 299 5,000  Level Boston Center
Fri 09:22:29 AM 41.3447 -71.5994 16° North 255 293 5,000 -99 Level Boston Center
Fri 09:23:30 AM 41.4092 -71.5711 18° North 244 281 4,800 -492 Descending Boston Center
Fri 09:24:31 AM 41.4653 -71.5481 17° North 213 245 4,000 -942 Descending Boston Center
Fri 09:25:31 AM 41.5172 -71.5364 10° North 184 212 2,900 -992 Descending Boston Center
Fri 09:26:32 AM 41.5672 -71.5272 North 181 208 2,000 -443 Descending Boston Center
Fri 09:27:33 AM 41.6131 -71.5183 North 171 197 2,000 -198 Level Boston Center
Fri 09:28:33 AM 41.6525 -71.4900 28° Northeast 155 178 1,600 -595 Descending Boston Center
Fri 09:29:34 AM 41.6833 -71.4589 37° Northeast 140 161 800 -787 Descending Boston Center

Login

Don't have an account? Register now (free) for customized features, flight alerts, and more!